Time;durP1;ratioP1;P1;durP2;ratioP2;P2;SDS_P1;SDS_P2;PMS_P1;PMS_P2;Temp;Humidity;BMP_temperature;BMP_pressure;BME280_temperature;BME280_humidity;BME280_pressure;Samples;Min_cycle;Max_cycle;Signal;HPM_P1;HPM_P2
2023/08/09 00:01:34;;;;;;;10.00;5.50;;;;;;;;;;107345;1250;62012;-80
2023/08/09 00:04:01;;;;;;;7.60;4.70;;;;;;;;;;107409;1250;62167;-80
2023/08/09 00:06:27;;;;;;;6.50;4.50;;;;;;;;;;107370;1253;61965;-80
2023/08/09 00:08:54;;;;;;;8.50;5.00;;;;;;;;;;107348;1251;62022;-80
2023/08/09 00:11:20;;;;;;;7.30;5.10;;;;;;;;;;107308;1250;62087;-80
2023/08/09 00:13:46;;;;;;;6.30;5.10;;;;;;;;;;107420;1250;62070;-80
2023/08/09 00:16:13;;;;;;;8.00;4.80;;;;;;;;;;107361;1251;61985;-80
2023/08/09 00:18:39;;;;;;;9.70;4.40;;;;;;;;;;107397;1250;62019;-80
2023/08/09 00:21:06;;;;;;;7.30;4.80;;;;;;;;;;107394;1250;62161;-81
2023/08/09 00:23:33;;;;;;;9.70;4.90;;;;;;;;;;107357;1254;62093;-80
2023/08/09 00:26:00;;;;;;;6.90;4.60;;;;;;;;;;107434;1253;62038;-81
2023/08/09 00:28:27;;;;;;;9.90;4.80;;;;;;;;;;107360;1250;62056;-80
2023/08/09 00:30:54;;;;;;;6.70;4.90;;;;;;;;;;107360;1251;61961;-80
2023/08/09 00:33:20;;;;;;;7.90;5.40;;;;;;;;;;107309;1251;61959;-80
2023/08/09 00:35:47;;;;;;;7.20;4.10;;;;;;;;;;107368;1250;61956;-80
2023/08/09 00:38:13;;;;;;;7.90;4.40;;;;;;;;;;107292;1254;61960;-80
2023/08/09 00:40:39;;;;;;;10.60;5.60;;;;;;;;;;107309;1251;62048;-80
2023/08/09 00:43:06;;;;;;;8.50;4.90;;;;;;;;;;107342;1251;59948;-80
2023/08/09 00:45:33;;;;;;;6.80;4.40;;;;;;;;;;107299;1251;62178;-81
2023/08/09 00:48:00;;;;;;;7.20;4.30;;;;;;;;;;107385;1251;62111;-80
2023/08/09 00:50:26;;;;;;;7.20;4.00;;;;;;;;;;107400;1251;61987;-79
2023/08/09 00:52:52;;;;;;;9.60;5.20;;;;;;;;;;107372;1250;62152;-80
2023/08/09 00:55:19;;;;;;;6.10;4.10;;;;;;;;;;107343;1251;63354;-80
2023/08/09 00:57:46;;;;;;;6.30;3.90;;;;;;;;;;107282;1253;62189;-80
2023/08/09 01:00:12;;;;;;;7.30;4.60;;;;;;;;;;107334;1252;62071;-80
2023/08/09 01:02:39;;;;;;;9.00;4.50;;;;;;;;;;107284;1251;62081;-80
2023/08/09 01:05:06;;;;;;;6.60;4.50;;;;;;;;;;107321;1252;60620;-80
2023/08/09 01:07:36;;;;;;;9.20;4.20;;;;;;;;;;107316;1251;62045;-80
2023/08/09 01:10:02;;;;;;;10.70;5.00;;;;;;;;;;107256;1251;62060;-80
2023/08/09 01:12:29;;;;;;;7.50;4.60;;;;;;;;;;107332;1251;60631;-80
2023/08/09 01:14:59;;;;;;;5.60;4.20;;;;;;;;;;107339;1253;61958;-80
2023/08/09 01:17:27;;;;;;;13.50;5.20;;;;;;;;;;107364;1251;61950;-80
2023/08/09 01:19:54;;;;;;;10.20;5.00;;;;;;;;;;107369;1251;62011;-79
2023/08/09 01:22:21;;;;;;;8.40;5.80;;;;;;;;;;107357;1251;62154;-79
2023/08/09 01:24:48;;;;;;;9.40;5.80;;;;;;;;;;107413;1250;62147;-80
2023/08/09 01:27:14;;;;;;;10.50;5.10;;;;;;;;;;107351;1255;60136;-80
2023/08/09 01:29:41;;;;;;;9.40;6.10;;;;;;;;;;107335;1249;61943;-80
2023/08/09 01:32:07;;;;;;;8.90;4.50;;;;;;;;;;107442;1249;62038;-80
2023/08/09 01:34:34;;;;;;;8.50;5.40;;;;;;;;;;107387;1250;62169;-80
2023/08/09 01:37:03;;;;;;;7.80;4.30;;;;;;;;;;107347;1254;61948;-80
2023/08/09 01:39:31;;;;;;;6.90;3.90;;;;;;;;;;107358;1251;60321;-80
2023/08/09 01:41:57;;;;;;;7.60;4.60;;;;;;;;;;107417;1251;60790;-80
2023/08/09 01:44:23;;;;;;;8.40;4.90;;;;;;;;;;107419;1250;61951;-80
2023/08/09 01:46:50;;;;;;;6.50;4.10;;;;;;;;;;107362;1249;62170;-79
2023/08/09 01:49:21;;;;;;;6.10;3.50;;;;;;;;;;107336;1250;62163;-80
2023/08/09 01:51:47;;;;;;;6.10;3.70;;;;;;;;;;107620;1249;62032;-81
2023/08/09 01:54:14;;;;;;;12.80;7.50;;;;;;;;;;107784;1249;62089;-80
2023/08/09 01:56:40;;;;;;;9.50;5.70;;;;;;;;;;107366;1253;62149;-80
2023/08/09 01:59:08;;;;;;;3.90;3.00;;;;;;;;;;107378;1250;62052;-79
2023/08/09 02:01:36;;;;;;;5.00;3.80;;;;;;;;;;107387;1250;62056;-80
2023/08/09 02:04:03;;;;;;;6.40;4.00;;;;;;;;;;107429;1250;61987;-80
2023/08/09 02:06:33;;;;;;;5.70;3.90;;;;;;;;;;107388;1253;62041;-80
2023/08/09 02:09:00;;;;;;;5.60;3.60;;;;;;;;;;107387;1254;61925;-80
2023/08/09 02:11:26;;;;;;;7.90;3.60;;;;;;;;;;107309;1250;62059;-80
2023/08/09 02:13:53;;;;;;;7.70;4.40;;;;;;;;;;107303;1249;62083;-80
2023/08/09 02:16:20;;;;;;;6.00;3.70;;;;;;;;;;107363;1249;62056;-79
2023/08/09 02:18:46;;;;;;;5.00;3.80;;;;;;;;;;107436;1249;62172;-79
2023/08/09 02:21:12;;;;;;;8.10;5.00;;;;;;;;;;107352;1251;62032;-79
2023/08/09 02:23:39;;;;;;;6.60;3.90;;;;;;;;;;107320;1250;62246;-80
2023/08/09 02:26:06;;;;;;;7.60;4.40;;;;;;;;;;107364;1251;62019;-80
2023/08/09 02:28:33;;;;;;;7.20;4.00;;;;;;;;;;107353;1251;61884;-80
2023/08/09 02:31:00;;;;;;;7.00;3.60;;;;;;;;;;107403;1250;63163;-80
2023/08/09 02:33:27;;;;;;;8.20;4.40;;;;;;;;;;107380;1250;63180;-80
2023/08/09 02:35:57;;;;;;;8.20;3.50;;;;;;;;;;106772;1250;62063;-80
2023/08/09 02:38:24;;;;;;;7.90;2.80;;;;;;;;;;107027;1253;62002;-79
2023/08/09 02:40:51;;;;;;;4.00;3.00;;;;;;;;;;106803;1250;62061;-80
2023/08/09 02:43:21;;;;;;;13.30;3.70;;;;;;;;;;106793;1253;61956;-79
2023/08/09 02:45:47;;;;;;;4.70;3.00;;;;;;;;;;106790;1253;62029;-80
2023/08/09 02:48:13;;;;;;;7.10;4.10;;;;;;;;;;106739;1254;62045;-80
2023/08/09 02:50:41;;;;;;;10.10;3.50;;;;;;;;;;106805;1250;62486;-80
2023/08/09 02:53:08;;;;;;;8.50;3.50;;;;;;;;;;106783;1250;62051;-80
2023/08/09 02:55:34;;;;;;;5.50;3.00;;;;;;;;;;106803;1253;61820;-79
2023/08/09 02:58:03;;;;;;;6.70;3.10;;;;;;;;;;106785;1249;62136;-79
2023/08/09 03:00:30;;;;;;;4.70;3.00;;;;;;;;;;106826;1250;62078;-80
2023/08/09 03:02:57;;;;;;;6.20;3.30;;;;;;;;;;106824;1250;62143;-80
2023/08/09 03:05:24;;;;;;;5.70;2.80;;;;;;;;;;106793;1249;62192;-80
2023/08/09 03:07:51;;;;;;;5.60;3.30;;;;;;;;;;106784;1249;62061;-79
2023/08/09 03:10:17;;;;;;;9.10;4.30;;;;;;;;;;106823;1249;62056;-80
2023/08/09 03:12:44;;;;;;;5.10;3.10;;;;;;;;;;106777;1254;62099;-80
2023/08/09 03:15:10;;;;;;;5.40;3.50;;;;;;;;;;106780;1250;62156;-80
2023/08/09 03:17:37;;;;;;;6.80;3.50;;;;;;;;;;106779;1251;62118;-79
2023/08/09 03:20:13;;;;;;;7.30;3.00;;;;;;;;;;106778;1249;62049;-80
2023/08/09 03:22:40;;;;;;;5.80;2.80;;;;;;;;;;106758;1249;61891;-80
2023/08/09 03:25:06;;;;;;;4.40;3.10;;;;;;;;;;107291;1249;62099;-80
2023/08/09 03:27:33;;;;;;;8.80;4.40;;;;;;;;;;107405;1249;61940;-79
2023/08/09 03:29:59;;;;;;;7.20;2.90;;;;;;;;;;107306;1251;62012;-80
2023/08/09 03:32:26;;;;;;;5.60;3.50;;;;;;;;;;107349;1251;61943;-80
2023/08/09 03:34:52;;;;;;;4.90;2.70;;;;;;;;;;107440;1253;62060;-80
2023/08/09 03:37:19;;;;;;;4.50;3.40;;;;;;;;;;107322;1251;63158;-79
2023/08/09 03:39:46;;;;;;;4.60;3.10;;;;;;;;;;106703;1251;62067;-80
2023/08/09 03:42:12;;;;;;;7.60;3.60;;;;;;;;;;107426;1250;62084;-80
2023/08/09 03:44:38;;;;;;;5.20;3.40;;;;;;;;;;107405;1250;62170;-80
2023/08/09 03:47:05;;;;;;;9.10;2.80;;;;;;;;;;106849;1249;62060;-79
2023/08/09 03:49:31;;;;;;;8.10;3.20;;;;;;;;;;106725;1250;62025;-80
2023/08/09 03:51:58;;;;;;;5.50;2.80;;;;;;;;;;106827;1249;62128;-80
2023/08/09 03:54:24;;;;;;;5.80;2.90;;;;;;;;;;106781;1253;62030;-80
2023/08/09 03:56:51;;;;;;;6.20;3.10;;;;;;;;;;106755;1250;62247;-80
2023/08/09 03:59:17;;;;;;;6.90;2.70;;;;;;;;;;106753;1251;62053;-79
2023/08/09 04:01:44;;;;;;;7.40;3.50;;;;;;;;;;106741;1250;62149;-80
2023/08/09 04:04:10;;;;;;;7.10;3.80;;;;;;;;;;106746;1249;62506;-79
2023/08/09 04:06:37;;;;;;;4.90;3.40;;;;;;;;;;106777;1249;61920;-79
2023/08/09 04:09:03;;;;;;;6.20;3.60;;;;;;;;;;106887;1254;62501;-81
2023/08/09 04:11:29;;;;;;;9.80;4.00;;;;;;;;;;107422;1253;62055;-80
2023/08/09 04:13:56;;;;;;;5.90;3.30;;;;;;;;;;106789;1250;62060;-81
2023/08/09 04:16:22;;;;;;;7.70;3.20;;;;;;;;;;107320;1250;62236;-81
2023/08/09 04:18:49;;;;;;;3.70;3.00;;;;;;;;;;107387;1250;62157;-81
2023/08/09 04:21:16;;;;;;;5.00;3.30;;;;;;;;;;107263;1250;62071;-81
2023/08/09 04:23:43;;;;;;;6.30;3.70;;;;;;;;;;107350;1252;61981;-81
2023/08/09 04:26:09;;;;;;;6.60;3.60;;;;;;;;;;107314;1250;62117;-81
2023/08/09 04:28:36;;;;;;;5.90;2.90;;;;;;;;;;107314;1250;62068;-81
2023/08/09 04:31:03;;;;;;;4.50;3.30;;;;;;;;;;107331;1251;61949;-81
2023/08/09 04:33:29;;;;;;;4.00;2.70;;;;;;;;;;107308;1251;62164;-81
2023/08/09 04:35:56;;;;;;;5.40;3.40;;;;;;;;;;107346;1251;61923;-81
2023/08/09 04:38:23;;;;;;;5.70;2.90;;;;;;;;;;107364;1251;62047;-81
2023/08/09 04:40:50;;;;;;;3.90;2.90;;;;;;;;;;107266;1250;62160;-81
2023/08/09 04:43:17;;;;;;;5.30;2.80;;;;;;;;;;107370;1250;60058;-81
2023/08/09 04:45:43;;;;;;;4.60;2.70;;;;;;;;;;107364;1252;61920;-80
2023/08/09 04:48:19;;;;;;;5.50;3.10;;;;;;;;;;107375;1253;62071;-81
2023/08/09 04:50:45;;;;;;;5.10;3.50;;;;;;;;;;107306;1249;62019;-81
2023/08/09 04:53:11;;;;;;;6.70;3.30;;;;;;;;;;107363;1253;62013;-81
2023/08/09 04:55:38;;;;;;;6.70;3.20;;;;;;;;;;107286;1250;62141;-81
2023/08/09 04:58:04;;;;;;;6.40;3.30;;;;;;;;;;107406;1253;62041;-81
2023/08/09 05:00:31;;;;;;;9.30;3.30;;;;;;;;;;107336;1249;62025;-81
2023/08/09 05:02:57;;;;;;;4.30;2.80;;;;;;;;;;107405;1251;62108;-80
2023/08/09 05:05:24;;;;;;;8.50;3.50;;;;;;;;;;107321;1251;62149;-80
2023/08/09 05:07:50;;;;;;;8.20;3.50;;;;;;;;;;107416;1250;62681;-81
2023/08/09 05:10:17;;;;;;;9.70;4.00;;;;;;;;;;107352;1252;62081;-81
2023/08/09 05:12:43;;;;;;;5.50;3.80;;;;;;;;;;107411;1249;62133;-81
2023/08/09 05:15:10;;;;;;;8.00;3.80;;;;;;;;;;107311;1249;62167;-81
2023/08/09 05:17:37;;;;;;;4.80;2.90;;;;;;;;;;107445;1250;60164;-81
2023/08/09 05:20:04;;;;;;;8.80;4.20;;;;;;;;;;107383;1250;62131;-81
2023/08/09 05:22:30;;;;;;;7.10;3.40;;;;;;;;;;107386;1250;62019;-81
2023/08/09 05:24:57;;;;;;;5.30;3.30;;;;;;;;;;107370;1249;62099;-81
2023/08/09 05:27:23;;;;;;;7.20;2.80;;;;;;;;;;107374;1253;62076;-81
2023/08/09 05:29:50;;;;;;;6.70;2.90;;;;;;;;;;107443;1250;62015;-81
2023/08/09 05:32:16;;;;;;;5.20;3.40;;;;;;;;;;107401;1251;61903;-81
2023/08/09 05:34:43;;;;;;;6.30;3.30;;;;;;;;;;107421;1254;62058;-79
2023/08/09 05:37:09;;;;;;;7.10;3.10;;;;;;;;;;106823;1250;62034;-81
2023/08/09 05:39:36;;;;;;;5.30;3.50;;;;;;;;;;107326;1254;62042;-81
2023/08/09 05:42:03;;;;;;;5.30;2.80;;;;;;;;;;107747;1253;62153;-79
2023/08/09 05:44:29;;;;;;;6.40;3.20;;;;;;;;;;106771;1249;62042;-79
2023/08/09 05:46:55;;;;;;;5.40;2.90;;;;;;;;;;106808;1254;62089;-79
2023/08/09 05:49:22;;;;;;;7.40;3.60;;;;;;;;;;106764;1250;62077;-79
2023/08/09 05:51:48;;;;;;;4.30;3.60;;;;;;;;;;106917;1249;62144;-79
2023/08/09 05:54:14;;;;;;;3.90;2.80;;;;;;;;;;106896;1250;61914;-79
2023/08/09 05:56:41;;;;;;;7.00;4.70;;;;;;;;;;106902;1253;62151;-79
2023/08/09 05:59:09;;;;;;;4.90;3.20;;;;;;;;;;106884;1249;62082;-79
2023/08/09 06:01:36;;;;;;;5.30;2.10;;;;;;;;;;106938;1249;62148;-79
2023/08/09 06:04:03;;;;;;;5.10;2.60;;;;;;;;;;106974;1250;62091;-79
2023/08/09 06:06:30;;;;;;;5.90;3.50;;;;;;;;;;106850;1250;62123;-79
2023/08/09 06:08:56;;;;;;;4.00;2.60;;;;;;;;;;107115;1250;62078;-79
2023/08/09 06:11:23;;;;;;;5.10;2.80;;;;;;;;;;106872;1254;61994;-79
2023/08/09 06:13:50;;;;;;;6.50;2.40;;;;;;;;;;106921;1250;63060;-80
2023/08/09 06:16:16;;;;;;;4.30;2.00;;;;;;;;;;107815;1249;62048;-81
2023/08/09 06:18:42;;;;;;;6.70;2.70;;;;;;;;;;107556;1250;62145;-80
2023/08/09 06:21:09;;;;;;;4.80;2.80;;;;;;;;;;107523;1253;62010;-80
2023/08/09 06:23:35;;;;;;;4.90;3.00;;;;;;;;;;107509;1254;62026;-80
2023/08/09 06:26:01;;;;;;;5.90;3.60;;;;;;;;;;107466;1249;62015;-80
2023/08/09 06:28:28;;;;;;;4.00;2.60;;;;;;;;;;107551;1250;62108;-80
2023/08/09 06:30:54;;;;;;;10.70;3.70;;;;;;;;;;107495;1250;62179;-80
2023/08/09 06:33:21;;;;;;;10.50;2.90;;;;;;;;;;107553;1251;62065;-80
2023/08/09 06:35:47;;;;;;;6.30;2.60;;;;;;;;;;107489;1249;62120;-80
2023/08/09 06:38:13;;;;;;;4.30;2.60;;;;;;;;;;107507;1250;62139;-80
2023/08/09 06:40:40;;;;;;;4.70;2.80;;;;;;;;;;107547;1249;62099;-80
2023/08/09 06:43:06;;;;;;;4.40;2.60;;;;;;;;;;107551;1251;62072;-80
2023/08/09 06:45:33;;;;;;;4.20;3.10;;;;;;;;;;107598;1250;61929;-80
2023/08/09 06:48:00;;;;;;;8.40;2.70;;;;;;;;;;107481;1249;62031;-80
2023/08/09 06:50:26;;;;;;;5.70;2.60;;;;;;;;;;107559;1251;62175;-80
2023/08/09 06:52:53;;;;;;;4.20;2.30;;;;;;;;;;107555;1249;62052;-80
2023/08/09 06:55:20;;;;;;;4.40;2.50;;;;;;;;;;107833;1250;62074;-80
2023/08/09 06:57:46;;;;;;;3.90;2.70;;;;;;;;;;107738;1254;64101;-80
2023/08/09 07:00:15;;;;;;;4.30;2.60;;;;;;;;;;107800;1249;62124;-80
2023/08/09 07:02:42;;;;;;;7.20;2.60;;;;;;;;;;107877;1250;62100;-80
2023/08/09 07:05:15;;;;;;;5.70;2.50;;;;;;;;;;107842;1250;62026;-80
2023/08/09 07:07:42;;;;;;;3.20;2.00;;;;;;;;;;107899;1250;61992;-80
2023/08/09 07:10:09;;;;;;;5.30;2.40;;;;;;;;;;107535;1251;163069;-80
2023/08/09 07:12:35;;;;;;;4.40;2.20;;;;;;;;;;107647;1249;62029;-80
2023/08/09 07:15:07;;;;;;;5.10;2.30;;;;;;;;;;107779;1250;62036;-81
2023/08/09 07:17:35;;;;;;;5.20;2.40;;;;;;;;;;107948;1249;62064;-81
2023/08/09 07:20:02;;;;;;;10.40;2.80;;;;;;;;;;107869;1249;62150;-81
2023/08/09 07:22:29;;;;;;;8.60;3.10;;;;;;;;;;107858;1254;61946;-80
2023/08/09 07:24:56;;;;;;;6.80;2.90;;;;;;;;;;107945;1249;62036;-81
2023/08/09 07:27:22;;;;;;;5.70;3.20;;;;;;;;;;107919;1250;60207;-81
2023/08/09 07:29:49;;;;;;;5.00;2.40;;;;;;;;;;107979;1249;62222;-81
2023/08/09 07:32:15;;;;;;;4.70;2.70;;;;;;;;;;107890;1250;62046;-81
2023/08/09 07:34:42;;;;;;;4.00;1.80;;;;;;;;;;108087;1249;63133;-81
2023/08/09 07:37:08;;;;;;;4.30;2.00;;;;;;;;;;107840;1253;62047;-81
2023/08/09 07:39:34;;;;;;;4.10;2.30;;;;;;;;;;107865;1249;62017;-81
2023/08/09 07:42:01;;;;;;;4.90;2.40;;;;;;;;;;108978;1250;60025;-81
2023/08/09 07:44:27;;;;;;;4.60;2.20;;;;;;;;;;109815;1249;59772;-81
2023/08/09 07:46:54;;;;;;;3.90;2.00;;;;;;;;;;109809;1250;59900;-81
2023/08/09 07:49:20;;;;;;;2.60;1.60;;;;;;;;;;109822;1249;59746;-81
2023/08/09 07:51:47;;;;;;;5.50;2.60;;;;;;;;;;109846;1249;59886;-81
2023/08/09 07:54:13;;;;;;;4.00;2.00;;;;;;;;;;109693;1250;60035;-81
2023/08/09 07:56:39;;;;;;;4.40;2.80;;;;;;;;;;107637;1255;62178;-81
2023/08/09 07:59:06;;;;;;;3.60;1.70;;;;;;;;;;107664;1254;62143;-81
2023/08/09 08:01:32;;;;;;;4.60;2.20;;;;;;;;;;107811;1249;62137;-81
2023/08/09 08:03:59;;;;;;;3.20;1.70;;;;;;;;;;108164;1250;62124;-81
2023/08/09 08:06:25;;;;;;;4.30;1.50;;;;;;;;;;108075;1250;62465;-81
2023/08/09 08:08:52;;;;;;;3.30;2.10;;;;;;;;;;107651;1250;62025;-81
2023/08/09 08:11:18;;;;;;;6.00;1.80;;;;;;;;;;107876;1249;62139;-81
2023/08/09 08:13:44;;;;;;;2.70;1.60;;;;;;;;;;107825;1250;62059;-81
2023/08/09 08:16:11;;;;;;;7.30;1.90;;;;;;;;;;107794;1249;62165;-81
2023/08/09 08:18:37;;;;;;;3.30;2.10;;;;;;;;;;107748;1250;62038;-80
2023/08/09 08:21:04;;;;;;;2.70;1.60;;;;;;;;;;107626;1249;62040;-81
2023/08/09 08:23:32;;;;;;;3.40;1.70;;;;;;;;;;107889;1253;61957;-81
2023/08/09 08:25:58;;;;;;;4.30;2.20;;;;;;;;;;107731;1249;62901;-81
2023/08/09 08:28:25;;;;;;;2.40;1.60;;;;;;;;;;107670;1250;62118;-81
2023/08/09 08:30:51;;;;;;;3.20;1.60;;;;;;;;;;107575;1250;62029;-81
2023/08/09 08:33:18;;;;;;;3.90;2.00;;;;;;;;;;107778;1250;62054;-81
2023/08/09 08:35:48;;;;;;;6.30;2.50;;;;;;;;;;107771;1250;61937;-81
2023/08/09 08:38:15;;;;;;;4.60;1.90;;;;;;;;;;107569;1254;62119;-81
2023/08/09 08:40:43;;;;;;;3.50;1.70;;;;;;;;;;107585;1250;62018;-81
2023/08/09 08:43:09;;;;;;;7.10;1.80;;;;;;;;;;107556;1250;61898;-80
2023/08/09 08:45:36;;;;;;;4.00;1.90;;;;;;;;;;107512;1250;62053;-81
2023/08/09 08:48:03;;;;;;;4.30;1.60;;;;;;;;;;107508;1250;62458;-81
2023/08/09 08:50:30;;;;;;;2.90;1.90;;;;;;;;;;107488;1250;62010;-81
2023/08/09 08:52:56;;;;;;;3.40;2.20;;;;;;;;;;107757;1252;61920;-81
2023/08/09 08:55:23;;;;;;;4.80;2.20;;;;;;;;;;107971;1254;61023;-81
2023/08/09 08:57:50;;;;;;;3.90;2.10;;;;;;;;;;107757;1249;62056;-81
2023/08/09 09:00:17;;;;;;;5.70;2.10;;;;;;;;;;107687;1250;62171;-82
2023/08/09 09:02:44;;;;;;;3.10;1.80;;;;;;;;;;107851;1249;62541;-81
2023/08/09 09:05:11;;;;;;;5.10;1.80;;;;;;;;;;107771;1249;62148;-81
2023/08/09 09:07:38;;;;;;;3.30;2.00;;;;;;;;;;107591;1255;62031;-81
2023/08/09 09:10:05;;;;;;;4.20;2.00;;;;;;;;;;107581;1250;61961;-81
2023/08/09 09:12:32;;;;;;;4.10;2.00;;;;;;;;;;107673;1250;61933;-81
2023/08/09 09:14:59;;;;;;;4.30;2.20;;;;;;;;;;107893;1249;62038;-81
2023/08/09 09:17:25;;;;;;;4.30;2.00;;;;;;;;;;107656;1252;62024;-81
2023/08/09 09:19:52;;;;;;;3.20;2.00;;;;;;;;;;107685;1250;62160;-81
2023/08/09 09:22:24;;;;;;;4.00;2.30;;;;;;;;;;108773;1250;61041;-81
2023/08/09 09:24:51;;;;;;;3.80;1.50;;;;;;;;;;109847;1249;59758;-82
2023/08/09 09:27:18;;;;;;;4.60;2.60;;;;;;;;;;109882;1249;61362;-82
2023/08/09 09:29:44;;;;;;;3.80;1.70;;;;;;;;;;109751;1249;59653;-81
2023/08/09 09:32:10;;;;;;;4.30;1.60;;;;;;;;;;109842;1249;59894;-82
2023/08/09 09:34:39;;;;;;;3.60;1.70;;;;;;;;;;109789;1254;59638;-82
2023/08/09 09:37:05;;;;;;;;;;;;;;;;;;109844;1250;59795;-82
2023/08/09 09:39:31;;;;;;;2.70;1.40;;;;;;;;;;109844;1249;59681;-82
2023/08/09 09:41:58;;;;;;;2.10;1.30;;;;;;;;;;109833;1249;59722;-81
2023/08/09 09:44:24;;;;;;;3.90;1.50;;;;;;;;;;109823;1253;60154;-81
2023/08/09 09:46:53;;;;;;;2.50;1.50;;;;;;;;;;109830;1249;59662;-82
2023/08/09 09:49:20;;;;;;;3.60;1.70;;;;;;;;;;107584;1250;62135;-81
2023/08/09 09:51:46;;;;;;;3.40;1.60;;;;;;;;;;108832;1250;61765;-81
2023/08/09 09:54:13;;;;;;;1.40;1.00;;;;;;;;;;107754;1250;62236;-81
2023/08/09 09:56:40;;;;;;;8.00;2.70;;;;;;;;;;107588;1249;61969;-81
2023/08/09 09:59:07;;;;;;;5.30;2.50;;;;;;;;;;107595;1249;64349;-81
2023/08/09 10:01:35;;;;;;;2.40;1.60;;;;;;;;;;107741;1251;62070;-81
2023/08/09 10:04:06;;;;;;;2.60;1.60;;;;;;;;;;108031;1251;62128;-81
2023/08/09 10:06:35;;;;;;;3.00;1.80;;;;;;;;;;108008;1249;62023;-81
2023/08/09 10:09:04;;;;;;;1.30;1.00;;;;;;;;;;107815;1254;62501;-81
2023/08/09 10:11:31;;;;;;;3.30;1.20;;;;;;;;;;107824;1249;62089;-82
2023/08/09 10:13:59;;;;;;;1.70;1.20;;;;;;;;;;108096;1249;61895;-81
2023/08/09 10:16:25;;;;;;;1.60;1.20;;;;;;;;;;107944;1256;61480;-81
2023/08/09 10:19:00;;;;;;;3.20;1.70;;;;;;;;;;107943;1249;61955;-81
2023/08/09 10:21:27;;;;;;;2.40;1.40;;;;;;;;;;107881;1249;62201;-81
2023/08/09 10:24:12;;;;;;;5.20;1.20;;;;;;;;;;108151;1249;61942;-81
2023/08/09 10:26:40;;;;;;;3.40;1.50;;;;;;;;;;107946;1252;61098;-81
2023/08/09 10:29:08;;;;;;;3.80;2.10;;;;;;;;;;107742;1249;62008;-81
2023/08/09 10:31:44;;;;;;;4.50;1.60;;;;;;;;;;107764;1250;62099;-81
2023/08/09 10:34:10;;;;;;;5.10;1.10;;;;;;;;;;107721;1251;62151;-81
2023/08/09 10:36:37;;;;;;;3.60;1.90;;;;;;;;;;107630;1250;62029;-81
2023/08/09 10:39:08;;;;;;;3.40;1.60;;;;;;;;;;107490;1250;62039;-82
2023/08/09 10:41:35;;;;;;;5.30;1.80;;;;;;;;;;107508;1249;62070;-81
2023/08/09 10:44:03;;;;;;;4.10;1.90;;;;;;;;;;107704;1252;62148;-81
2023/08/09 10:46:34;;;;;;;7.50;2.50;;;;;;;;;;107384;1254;61919;-81
2023/08/09 10:49:01;;;;;;;3.60;2.60;;;;;;;;;;107384;1250;62067;-80
2023/08/09 10:51:28;;;;;;;3.50;2.30;;;;;;;;;;107400;1252;62023;-80
2023/08/09 10:54:03;;;;;;;2.70;1.80;;;;;;;;;;107568;1253;60651;-80
2023/08/09 10:56:33;;;;;;;3.60;2.00;;;;;;;;;;107358;1255;62023;-81
2023/08/09 10:59:05;;;;;;;7.00;1.80;;;;;;;;;;107335;1250;62186;-80
2023/08/09 11:01:35;;;;;;;3.10;1.80;;;;;;;;;;107375;1254;61983;-80
2023/08/09 11:04:08;;;;;;;4.50;1.70;;;;;;;;;;107643;1254;60353;-80
2023/08/09 11:06:42;;;;;;;6.70;3.70;;;;;;;;;;107502;1250;62009;-80
2023/08/09 11:09:11;;;;;;;6.10;3.90;;;;;;;;;;107391;1254;62030;-80
2023/08/09 11:11:40;;;;;;;3.70;2.50;;;;;;;;;;107441;1250;62061;-80
2023/08/09 11:14:08;;;;;;;5.60;2.40;;;;;;;;;;107578;1255;62101;-81
2023/08/09 11:16:35;;;;;;;5.50;2.50;;;;;;;;;;107476;1249;61959;-80
2023/08/09 11:19:07;;;;;;;3.20;1.90;;;;;;;;;;107466;1250;61967;-80
2023/08/09 11:21:41;;;;;;;5.90;2.40;;;;;;;;;;107599;1250;63131;-80
2023/08/09 11:24:08;;;;;;;5.10;1.60;;;;;;;;;;107573;1250;62397;-80
2023/08/09 11:26:39;;;;;;;3.20;1.70;;;;;;;;;;107496;1250;62034;-80
2023/08/09 11:29:05;;;;;;;4.30;1.70;;;;;;;;;;107396;1250;62056;-80
2023/08/09 11:31:33;;;;;;;5.40;2.20;;;;;;;;;;107296;1256;61134;-80
2023/08/09 11:34:00;;;;;;;3.80;2.10;;;;;;;;;;107543;1250;62622;-80
2023/08/09 11:36:27;;;;;;;3.70;1.50;;;;;;;;;;107473;1250;62101;-81
2023/08/09 11:38:54;;;;;;;4.40;1.80;;;;;;;;;;107442;1250;61989;-80
2023/08/09 11:41:21;;;;;;;3.10;1.50;;;;;;;;;;107442;1251;62062;-80
2023/08/09 11:43:48;;;;;;;4.80;2.00;;;;;;;;;;107638;1254;61952;-80
2023/08/09 11:46:18;;;;;;;2.70;1.50;;;;;;;;;;107517;1254;62129;-80
2023/08/09 11:48:44;;;;;;;4.70;2.00;;;;;;;;;;107438;1250;62053;-80
2023/08/09 11:51:12;;;;;;;5.00;1.80;;;;;;;;;;107391;1250;60650;-80
2023/08/09 11:53:42;;;;;;;4.90;2.20;;;;;;;;;;107528;1255;62088;-81
2023/08/09 11:56:18;;;;;;;3.70;2.20;;;;;;;;;;107470;1250;60778;-80
2023/08/09 11:58:46;;;;;;;3.40;2.00;;;;;;;;;;107332;1250;62097;-80
2023/08/09 12:01:14;;;;;;;2.30;1.80;;;;;;;;;;107515;1252;62006;-80
2023/08/09 12:03:40;;;;;;;4.20;1.60;;;;;;;;;;107627;1255;61951;-80
2023/08/09 12:06:08;;;;;;;3.00;1.80;;;;;;;;;;107781;1253;61974;-80
2023/08/09 12:08:36;;;;;;;3.00;2.20;;;;;;;;;;107411;1254;61946;-80
2023/08/09 12:11:03;;;;;;;2.70;1.90;;;;;;;;;;107436;1249;62070;-80
2023/08/09 12:13:30;;;;;;;3.60;1.50;;;;;;;;;;107504;1250;62037;-80
2023/08/09 12:15:57;;;;;;;3.60;2.10;;;;;;;;;;107477;1249;62043;-80
2023/08/09 12:18:24;;;;;;;2.60;1.60;;;;;;;;;;107359;1253;60276;-80
2023/08/09 12:20:52;;;;;;;4.20;2.50;;;;;;;;;;107353;1253;62022;-80
2023/08/09 12:23:19;;;;;;;3.70;2.10;;;;;;;;;;107509;1249;62027;-81
2023/08/09 12:25:46;;;;;;;4.30;2.30;;;;;;;;;;107460;1250;62139;-80
2023/08/09 12:28:16;;;;;;;3.50;2.20;;;;;;;;;;107293;1253;61968;-80
2023/08/09 12:30:42;;;;;;;5.50;2.20;;;;;;;;;;107356;1250;63067;-80
2023/08/09 12:33:09;;;;;;;3.90;2.50;;;;;;;;;;107938;1249;62667;-80
2023/08/09 12:35:36;;;;;;;3.20;2.10;;;;;;;;;;107623;1253;62119;-80
2023/08/09 12:38:03;;;;;;;3.30;2.00;;;;;;;;;;107452;1250;62253;-80
2023/08/09 12:40:29;;;;;;;3.30;2.10;;;;;;;;;;107418;1251;62032;-80
2023/08/09 12:42:56;;;;;;;3.10;1.70;;;;;;;;;;107511;1253;62039;-80
2023/08/09 12:45:23;;;;;;;4.90;1.60;;;;;;;;;;107638;1250;61908;-80
2023/08/09 12:47:49;;;;;;;2.90;2.00;;;;;;;;;;107498;1250;61883;-80
2023/08/09 12:50:17;;;;;;;2.00;1.50;;;;;;;;;;107388;1254;62259;-80
2023/08/09 12:52:43;;;;;;;2.10;1.40;;;;;;;;;;107442;1250;62051;-80
2023/08/09 12:55:10;;;;;;;3.90;1.50;;;;;;;;;;107549;1250;62038;-80
2023/08/09 12:57:37;;;;;;;3.00;1.70;;;;;;;;;;107342;1255;62131;-80
2023/08/09 13:00:04;;;;;;;2.90;1.60;;;;;;;;;;107338;1249;62034;-80
2023/08/09 13:02:31;;;;;;;2.50;1.30;;;;;;;;;;107447;1253;62119;-80
2023/08/09 13:04:59;;;;;;;3.70;1.80;;;;;;;;;;107703;1254;62061;-81
2023/08/09 13:07:29;;;;;;;5.20;3.90;;;;;;;;;;107484;1253;61971;-81
2023/08/09 13:09:55;;;;;;;5.70;2.30;;;;;;;;;;107435;1254;62140;-81
2023/08/09 13:12:25;;;;;;;2.80;2.00;;;;;;;;;;107455;1251;62005;-80
2023/08/09 13:14:51;;;;;;;2.80;1.50;;;;;;;;;;107609;1249;61955;-81
2023/08/09 13:17:18;;;;;;;2.90;1.80;;;;;;;;;;107354;1253;62024;-81
2023/08/09 13:19:47;;;;;;;2.30;1.60;;;;;;;;;;107410;1253;61931;-81
2023/08/09 13:22:13;;;;;;;4.40;1.70;;;;;;;;;;108540;1251;62117;-80
2023/08/09 13:24:40;;;;;;;2.80;1.50;;;;;;;;;;107833;1251;62490;-80
2023/08/09 13:27:06;;;;;;;1.90;1.40;;;;;;;;;;107625;1251;62131;-81
2023/08/09 13:29:33;;;;;;;2.20;1.30;;;;;;;;;;107345;1252;62016;-81
2023/08/09 13:31:59;;;;;;;2.60;1.60;;;;;;;;;;107547;1253;62076;-81
2023/08/09 13:34:26;;;;;;;2.10;1.30;;;;;;;;;;107165;1251;62016;-80
2023/08/09 13:36:52;;;;;;;2.30;1.20;;;;;;;;;;107259;1254;62078;-80
2023/08/09 13:39:19;;;;;;;3.60;1.70;;;;;;;;;;107368;1251;62085;-81
2023/08/09 13:41:45;;;;;;;3.70;1.30;;;;;;;;;;107193;1254;62095;-81
2023/08/09 13:44:12;;;;;;;1.90;1.40;;;;;;;;;;107280;1253;62094;-81
2023/08/09 13:46:39;;;;;;;2.10;1.40;;;;;;;;;;107233;1252;61899;-81
2023/08/09 13:49:06;;;;;;;2.10;1.40;;;;;;;;;;107246;1250;62139;-81
2023/08/09 13:51:32;;;;;;;2.60;1.50;;;;;;;;;;107183;1254;62040;-82
2023/08/09 13:53:58;;;;;;;2.20;1.30;;;;;;;;;;107276;1250;62147;-80
2023/08/09 13:56:25;;;;;;;3.70;1.20;;;;;;;;;;107192;1253;62131;-80
2023/08/09 13:58:52;;;;;;;2.40;1.40;;;;;;;;;;107293;1251;62226;-80
2023/08/09 14:01:18;;;;;;;2.50;1.60;;;;;;;;;;107329;1253;61526;-80
2023/08/09 14:03:45;;;;;;;2.40;1.10;;;;;;;;;;107272;1251;61983;-80
2023/08/09 14:06:11;;;;;;;2.90;1.50;;;;;;;;;;107215;1251;62130;-81
2023/08/09 14:08:38;;;;;;;3.90;1.90;;;;;;;;;;107236;1251;62144;-80
2023/08/09 14:11:04;;;;;;;2.50;1.50;;;;;;;;;;107385;1253;61952;-80
2023/08/09 14:13:31;;;;;;;2.70;1.40;;;;;;;;;;107469;1252;62037;-80
2023/08/09 14:15:58;;;;;;;4.30;2.80;;;;;;;;;;107498;1251;62066;-81
2023/08/09 14:18:25;;;;;;;4.00;2.90;;;;;;;;;;107540;1251;62059;-80
2023/08/09 14:20:52;;;;;;;5.70;3.70;;;;;;;;;;107501;1250;62079;-80
2023/08/09 14:23:18;;;;;;;4.00;2.10;;;;;;;;;;107338;1253;62011;-80
2023/08/09 14:25:44;;;;;;;4.70;2.30;;;;;;;;;;107273;1251;62005;-80
2023/08/09 14:28:11;;;;;;;8.20;3.30;;;;;;;;;;107134;1252;62064;-80
2023/08/09 14:30:37;;;;;;;3.30;2.40;;;;;;;;;;107140;1251;62120;-80